createdAt,value
2023-03-28T00:01:02.997Z,97040.09
2023-03-28T00:03:39.592Z,97040.03
2023-03-28T00:06:13.986Z,97037.84
2023-03-28T00:08:42.439Z,97034.59
2023-03-28T00:11:19.596Z,97032.58
2023-03-28T00:13:49.881Z,97033.33
2023-03-28T00:16:19.216Z,97030.62
2023-03-28T00:18:52.126Z,97027.81
2023-03-28T00:21:20.288Z,97029.44
2023-03-28T00:23:52.668Z,97030.12
2023-03-28T00:26:22.378Z,97030.92
2023-03-28T00:28:52.139Z,97031.50
2023-03-28T00:31:26.164Z,97034.34
2023-03-28T00:33:54.592Z,97035.94
2023-03-28T00:36:26.811Z,97035.91
2023-03-28T00:39:01.774Z,97035.81
2023-03-28T00:41:33.241Z,97034.88
2023-03-28T00:44:02.031Z,97033.85
2023-03-28T00:46:40.318Z,97027.84
2023-03-28T00:49:16.284Z,97028.91
2023-03-28T00:51:51.515Z,97026.22
2023-03-28T00:54:20.459Z,97023.17
2023-03-28T00:56:52.588Z,97024.98
2023-03-28T00:59:24.287Z,97020.84
2023-03-28T01:01:53.567Z,97018.63
2023-03-28T01:04:24.686Z,97013.45
2023-03-28T01:06:55.079Z,97017.47
2023-03-28T01:09:24.304Z,97015.38
2023-03-28T01:11:54.509Z,97018.09
2023-03-28T01:14:23.795Z,97019.47
2023-03-28T01:16:56.706Z,97022.82
2023-03-28T01:20:01.205Z,97022.38
2023-03-28T01:22:56.925Z,97023.90
2023-03-28T01:25:46.293Z,97026.73
2023-03-28T01:28:40.573Z,97029.90
2023-03-28T01:31:24.045Z,97028.17
2023-03-28T01:34:34.002Z,97032.00
2023-03-28T01:37:31.850Z,97028.92
2023-03-28T01:40:15.840Z,97027.23
2023-03-28T01:43:13.015Z,97026.98
2023-03-28T01:45:48.512Z,97034.58
2023-03-28T01:48:39.041Z,97048.29
2023-03-28T01:51:16.654Z,97052.02
2023-03-28T01:53:53.457Z,97056.05
2023-03-28T01:56:30.800Z,97058.62
2023-03-28T01:59:25.323Z,97057.96
2023-03-28T02:02:22.711Z,97058.08
2023-03-28T02:04:52.176Z,97058.93
2023-03-28T02:07:29.135Z,97062.39
2023-03-28T02:10:07.240Z,97068.23
2023-03-28T02:13:00.505Z,97066.62
2023-03-28T02:15:51.877Z,97070.16
2023-03-28T02:18:31.568Z,97077.67
2023-03-28T02:21:24.042Z,97079.80
2023-03-28T02:24:09.890Z,97080.52
2023-03-28T02:26:53.677Z,97081.98
2023-03-28T02:29:49.554Z,97086.88
2023-03-28T02:32:22.103Z,97091.40
2023-03-28T02:34:52.080Z,97088.51
2023-03-28T02:37:42.236Z,97096.13
2023-03-28T02:40:40.922Z,97102.74
2023-03-28T02:43:23.843Z,97106.11
2023-03-28T02:46:18.965Z,97111.00
2023-03-28T02:49:16.897Z,97111.58
2023-03-28T02:52:24.413Z,97112.66
2023-03-28T02:55:03.502Z,97123.20
2023-03-28T02:57:42.976Z,97129.63
2023-03-28T03:00:16.670Z,97132.55
2023-03-28T03:02:49.412Z,97134.61
2023-03-28T03:05:20.533Z,97146.98
2023-03-28T03:07:50.015Z,97158.30
2023-03-28T03:10:18.888Z,97161.15
2023-03-28T03:12:49.610Z,97158.00
2023-03-28T03:15:18.306Z,97160.88
2023-03-28T03:17:53.384Z,97163.90
2023-03-28T03:20:27.342Z,97170.40
2023-03-28T03:23:02.387Z,97170.52
2023-03-28T03:25:34.707Z,97167.59
2023-03-28T03:28:32.412Z,97178.68
2023-03-28T03:31:02.853Z,97173.98
2023-03-28T03:33:55.094Z,97186.14
2023-03-28T03:36:27.307Z,97193.32
2023-03-28T03:38:56.734Z,97187.42
2023-03-28T03:41:25.307Z,97206.65
2023-03-28T03:43:55.254Z,97199.39
2023-03-28T03:46:24.072Z,97209.00
2023-03-28T03:48:55.994Z,97216.55
2023-03-28T03:51:25.539Z,97214.25
2023-03-28T03:53:58.052Z,97216.98
2023-03-28T03:56:33.394Z,97226.89
2023-03-28T03:59:02.493Z,97226.68
2023-03-28T04:01:35.146Z,97230.43
2023-03-28T04:04:23.854Z,97234.54
2023-03-28T04:07:24.610Z,97230.17
2023-03-28T04:09:55.354Z,97242.52
2023-03-28T04:12:26.803Z,97246.98
2023-03-28T04:14:56.438Z,97248.30
2023-03-28T04:17:41.704Z,97250.34
2023-03-28T04:20:14.185Z,97254.45
2023-03-28T04:23:06.112Z,97255.23
2023-03-28T04:25:36.944Z,97261.90
2023-03-28T04:28:16.287Z,97263.62
2023-03-28T04:30:58.507Z,97264.79
2023-03-28T04:34:05.571Z,97282.21
2023-03-28T04:36:35.175Z,97280.61
2023-03-28T04:39:04.951Z,97283.30
2023-03-28T04:41:55.751Z,97288.36
2023-03-28T04:44:47.502Z,97297.09
2023-03-28T04:47:18.960Z,97287.80
2023-03-28T04:49:48.974Z,97292.56
2023-03-28T04:52:18.991Z,97298.18
2023-03-28T04:54:48.219Z,97298.56
2023-03-28T04:57:19.253Z,97312.50
2023-03-28T04:59:50.679Z,97311.30
2023-03-28T05:02:26.250Z,97318.14
2023-03-28T05:05:02.443Z,97315.42
2023-03-28T05:07:31.715Z,97322.28
2023-03-28T05:14:57.278Z,97332.45
2023-03-28T05:17:25.857Z,97338.23
2023-03-28T05:20:19.759Z,97336.54
2023-03-28T05:22:51.786Z,97333.98
2023-03-28T05:25:20.558Z,97343.77
2023-03-28T05:27:50.521Z,97333.80
2023-03-28T05:30:19.408Z,97341.73
2023-03-28T05:32:54.106Z,97336.48
2023-03-28T05:35:22.961Z,97329.44
2023-03-28T05:37:51.922Z,97333.69
2023-03-28T05:40:20.710Z,97336.04
2023-03-28T15:45:11.041Z,98075.39
2023-03-28T15:47:42.447Z,98093.05
2023-03-28T15:50:13.824Z,98091.05
2023-03-28T15:52:45.550Z,98089.99
2023-03-28T15:55:21.987Z,98097.52
2023-03-28T15:57:51.732Z,98088.83
2023-03-28T16:00:39.674Z,98105.95
2023-03-28T16:03:20.968Z,98113.81
2023-03-28T16:05:52.024Z,98103.33
2023-03-28T16:08:25.779Z,98120.48
2023-03-28T16:10:54.830Z,98111.80
2023-03-28T16:13:38.944Z,98124.96
2023-03-28T16:16:37.488Z,98126.38
2023-03-28T16:19:24.321Z,98125.27
2023-03-28T16:21:54.255Z,98121.21
2023-03-28T16:24:23.223Z,98131.14
2023-03-28T16:26:53.133Z,98113.05
2023-03-28T16:29:22.242Z,98131.02
2023-03-28T16:31:53.882Z,98123.51
2023-03-28T16:34:22.290Z,98121.83
2023-03-28T16:36:51.347Z,98133.52
2023-03-28T16:39:20.641Z,98131.77
2023-03-28T16:41:49.534Z,98135.88
2023-03-28T16:44:18.418Z,98132.84
2023-03-28T16:46:47.309Z,98130.39
2023-03-28T16:49:19.780Z,98141.85
2023-03-28T16:51:48.564Z,98145.30
2023-03-28T16:54:18.272Z,98162.73
2023-03-28T16:56:47.183Z,98161.34
2023-03-28T16:59:15.843Z,98166.41
2023-03-28T17:01:46.722Z,98162.83
2023-03-28T17:04:15.792Z,98158.68
2023-03-28T17:06:44.968Z,98160.13
2023-03-28T17:09:14.880Z,98163.48
2023-03-28T17:11:43.465Z,98160.23
2023-03-28T17:14:17.170Z,98168.08
2023-03-28T17:16:46.932Z,98172.92
2023-03-28T17:19:19.553Z,98178.66
2023-03-28T17:21:49.468Z,98172.69
2023-03-28T17:24:18.963Z,98174.11
2023-03-28T17:26:47.862Z,98179.93
2023-03-28T17:29:18.073Z,98176.02
2023-03-28T17:31:46.862Z,98165.48
2023-03-28T17:34:18.206Z,98170.29
2023-03-28T17:36:51.176Z,98165.18
2023-03-28T17:39:19.463Z,98173.77
2023-03-28T17:41:49.006Z,98167.73
2023-03-28T17:44:21.854Z,98175.65
2023-03-28T17:46:54.696Z,98185.64
2023-03-28T17:49:23.122Z,98187.23
2023-03-28T17:51:52.313Z,98186.11
2023-03-28T17:54:20.872Z,98191.64
2023-03-28T17:56:51.741Z,98190.46
2023-03-28T17:59:21.723Z,98187.73
2023-03-28T18:01:50.229Z,98195.16
2023-03-28T18:04:20.326Z,98198.45
2023-03-28T18:07:16.211Z,98202.60
2023-03-28T18:09:52.333Z,98205.88
2023-03-28T18:12:21.702Z,98197.73
2023-03-28T18:14:50.505Z,98205.92
2023-03-28T18:17:24.198Z,98209.58
2023-03-28T18:19:53.124Z,98211.74
2023-03-28T18:22:22.187Z,98215.04
2023-03-28T18:24:50.605Z,98209.52
2023-03-28T18:27:19.117Z,98206.52
2023-03-28T18:29:51.666Z,98207.98
2023-03-28T18:32:26.343Z,98206.07
2023-03-28T18:34:55.420Z,98212.56
2023-03-28T18:37:24.003Z,98217.41
2023-03-28T18:39:52.379Z,98213.75
2023-03-28T18:42:21.164Z,98230.61
2023-03-28T18:44:50.126Z,98232.78
2023-03-28T18:47:21.814Z,98236.10
2023-03-28T18:49:50.309Z,98237.50
2023-03-28T18:52:19.692Z,98231.52
2023-03-28T18:54:49.504Z,98229.55
2023-03-28T18:57:18.943Z,98240.02
2023-03-28T18:59:48.512Z,98229.16
2023-03-28T19:02:17.632Z,98227.90
2023-03-28T19:04:47.158Z,98236.14
2023-03-28T19:07:17.013Z,98229.90
2023-03-28T19:09:46.729Z,98236.45
2023-03-28T19:12:16.632Z,98230.38
2023-03-28T19:14:45.755Z,98237.05
2023-03-28T19:17:14.263Z,98237.56
2023-03-28T19:19:42.649Z,98242.48
2023-03-28T19:22:11.471Z,98240.61
2023-03-28T19:24:39.847Z,98238.84
2023-03-28T19:27:08.429Z,98244.56
2023-03-28T19:29:36.805Z,98250.03
2023-03-28T19:32:09.690Z,98241.02
2023-03-28T19:34:38.777Z,98241.75
2023-03-28T19:37:07.258Z,98245.41
2023-03-28T19:39:35.949Z,98253.96
2023-03-28T19:42:04.799Z,98250.33
2023-03-28T19:44:33.573Z,98255.16
2023-03-28T19:47:02.076Z,98251.92
2023-03-28T19:49:34.165Z,98252.03
2023-03-28T19:52:04.902Z,98251.08
2023-03-28T19:54:33.090Z,98253.98
2023-03-28T19:57:01.873Z,98246.97
2023-03-28T19:59:30.369Z,98251.29
2023-03-28T20:01:59.172Z,98255.55
2023-03-28T20:04:28.318Z,98264.62
2023-03-28T20:06:56.695Z,98262.27
2023-03-28T20:09:28.650Z,98260.98
2023-03-28T20:11:58.253Z,98255.67
2023-03-28T20:14:26.632Z,98263.73
2023-03-28T20:17:00.028Z,98270.40
2023-03-28T20:19:29.635Z,98264.80
2023-03-28T20:21:58.118Z,98260.99
2023-03-28T20:24:28.440Z,98254.79
2023-03-28T20:26:56.811Z,98254.98
2023-03-28T20:29:30.817Z,98258.42
2023-03-28T20:31:59.298Z,98262.99
2023-03-28T20:34:27.877Z,98259.54
2023-03-28T20:37:01.233Z,98261.90
2023-03-28T20:39:34.268Z,98255.30
2023-03-28T20:42:03.413Z,98264.50
2023-03-28T20:44:38.348Z,98263.65
2023-03-28T20:47:08.170Z,98262.52
2023-03-28T20:49:38.552Z,98263.02
2023-03-28T20:52:08.796Z,98286.02
2023-03-28T20:54:38.009Z,98279.26
2023-03-28T20:57:26.216Z,98287.91
2023-03-28T20:59:58.241Z,98286.13
2023-03-28T21:02:33.621Z,98288.64
2023-03-28T21:05:03.735Z,98292.27
2023-03-28T21:07:35.146Z,98297.38
2023-03-28T21:10:04.184Z,98299.45
2023-03-28T21:12:33.019Z,98305.52
2023-03-28T21:15:07.027Z,98302.18
2023-03-28T21:17:36.977Z,98302.64
2023-03-28T21:20:10.510Z,98294.83
2023-03-28T21:22:39.646Z,98305.98
2023-03-28T21:25:10.711Z,98307.15
2023-03-28T21:27:39.989Z,98308.48
2023-03-28T21:30:11.802Z,98311.80
2023-03-28T21:33:01.501Z,98320.10
2023-03-28T21:35:31.769Z,98325.33
2023-03-28T21:38:00.623Z,98327.46
2023-03-28T21:40:28.894Z,98331.52
2023-03-28T21:42:59.313Z,98326.77
2023-03-28T21:45:27.888Z,98326.08
2023-03-28T21:47:59.092Z,98319.95
2023-03-28T21:50:31.609Z,98323.04
2023-03-28T21:53:00.189Z,98333.83
2023-03-28T21:55:29.170Z,98328.92
2023-03-28T21:57:58.180Z,98329.45
2023-03-28T22:00:26.877Z,98325.63
2023-03-28T22:02:56.404Z,98328.98
2023-03-28T22:05:29.545Z,98341.38
2023-03-28T22:07:58.866Z,98330.51
2023-03-28T22:10:27.641Z,98332.18
2023-03-28T22:12:58.998Z,98341.04
2023-03-28T22:15:27.823Z,98332.75
2023-03-28T22:17:58.496Z,98334.45
2023-03-28T22:20:32.818Z,98338.63
2023-03-28T22:23:01.616Z,98334.84
2023-03-28T22:25:34.931Z,98336.71
2023-03-28T22:28:04.917Z,98337.05
2023-03-28T22:30:34.113Z,98343.44
2023-03-28T22:33:04.225Z,98349.80
2023-03-28T22:35:33.770Z,98344.16
2023-03-28T22:38:02.568Z,98350.63
2023-03-28T22:40:31.952Z,98351.23
2023-03-28T22:43:00.603Z,98356.34
2023-03-28T22:45:34.715Z,98355.44
2023-03-28T22:48:04.833Z,98352.07
2023-03-28T22:50:33.920Z,98361.34
2023-03-28T22:53:04.657Z,98360.09
2023-03-28T22:55:33.540Z,98361.65
2023-03-28T22:58:05.502Z,98366.48
2023-03-28T23:00:34.698Z,98367.88
2023-03-28T23:03:03.114Z,98369.99
2023-03-28T23:05:32.152Z,98366.98
2023-03-28T23:08:01.464Z,98369.73
2023-03-28T23:10:30.044Z,98373.26
2023-03-28T23:12:58.626Z,98380.15
2023-03-28T23:15:27.330Z,98370.10
2023-03-28T23:17:56.615Z,98379.58
2023-03-28T23:20:26.877Z,98387.33
2023-03-28T23:22:55.623Z,98390.29
2023-03-28T23:25:24.402Z,98390.52
2023-03-28T23:27:53.401Z,98386.41
2023-03-28T23:30:22.179Z,98383.63
2023-03-28T23:32:50.731Z,98393.95
2023-03-28T23:35:19.189Z,98399.63
2023-03-28T23:37:47.735Z,98389.85
2023-03-28T23:40:17.422Z,98392.23
2023-03-28T23:42:46.547Z,98398.60
2023-03-28T23:45:15.764Z,98393.42
2023-03-28T23:47:44.664Z,98392.71
2023-03-28T23:50:14.520Z,98398.19
2023-03-28T23:52:44.217Z,98411.61
2023-03-28T23:55:16.699Z,98411.81
2023-03-28T23:57:47.413Z,98422.53
